createdAt,value
2017-07-15T00:01:14.374Z,34.63
2017-07-15T00:03:41.013Z,30.35
2017-07-15T00:06:07.622Z,28.25
2017-07-15T00:08:34.290Z,27.98
2017-07-15T00:11:01.029Z,27.30
2017-07-15T00:13:27.673Z,23.73
2017-07-15T00:15:54.310Z,27.27
2017-07-15T00:18:20.939Z,27.25
2017-07-15T00:20:59.319Z,25.15
2017-07-15T00:23:37.735Z,29.98
2017-07-15T00:26:04.383Z,26.33
2017-07-15T00:28:31.092Z,27.15
2017-07-15T00:30:57.808Z,24.08
2017-07-15T00:33:24.442Z,25.48
2017-07-15T00:35:51.082Z,32.95
2017-07-15T00:38:17.818Z,30.23
2017-07-15T00:40:44.463Z,38.70
2017-07-15T00:43:11.098Z,32.97
2017-07-15T00:45:37.739Z,32.33
2017-07-15T00:48:04.379Z,37.38
2017-07-15T00:50:31.018Z,39.00
2017-07-15T00:52:57.698Z,33.45
2017-07-15T00:55:24.398Z,29.87
2017-07-15T00:57:51.006Z,31.62
2017-07-15T01:00:17.675Z,25.05
2017-07-15T01:02:44.321Z,23.23
2017-07-15T01:05:10.930Z,21.73
2017-07-15T01:07:37.595Z,23.17
2017-07-15T01:10:04.244Z,20.10
2017-07-15T01:12:30.854Z,22.20
2017-07-15T01:14:57.515Z,20.30
2017-07-15T01:17:24.147Z,22.87
2017-07-15T01:19:50.787Z,22.75
2017-07-15T01:22:17.423Z,20.75
2017-07-15T01:24:44.072Z,18.00
2017-07-15T01:27:10.689Z,18.20
2017-07-15T01:29:37.343Z,18.58
2017-07-15T01:32:03.955Z,18.20
2017-07-15T01:34:30.567Z,18.83
2017-07-15T01:36:57.258Z,18.42
2017-07-15T01:39:23.893Z,18.90
2017-07-15T01:41:50.538Z,19.77
2017-07-15T01:44:17.280Z,17.40
2017-07-15T01:46:43.918Z,18.60
2017-07-15T01:49:10.559Z,19.85
2017-07-15T01:51:37.238Z,21.42
2017-07-15T01:54:03.847Z,19.73
2017-07-15T01:56:30.474Z,18.52
2017-07-15T01:58:57.216Z,21.25
2017-07-15T02:01:23.827Z,20.60
2017-07-15T02:03:50.494Z,20.55
2017-07-15T02:06:17.123Z,17.98
2017-07-15T02:08:43.735Z,16.95
2017-07-15T02:11:10.355Z,16.58
2017-07-15T02:13:37.047Z,17.92
2017-07-15T02:16:03.663Z,16.95
2017-07-15T02:18:30.275Z,16.70
2017-07-15T02:20:56.906Z,16.45
2017-07-15T02:23:23.518Z,18.20
2017-07-15T02:25:50.248Z,15.45
2017-07-15T02:28:16.986Z,13.35
2017-07-15T02:30:43.623Z,14.65
2017-07-15T02:33:10.242Z,15.80
2017-07-15T02:35:36.906Z,18.02
2017-07-15T02:38:03.523Z,14.75
2017-07-15T02:40:30.135Z,14.50
2017-07-15T02:42:56.769Z,17.45
2017-07-15T02:45:23.467Z,16.80
2017-07-15T02:47:50.098Z,23.10
2017-07-15T02:50:16.731Z,21.83
2017-07-15T02:52:43.351Z,26.58
2017-07-15T02:55:10.015Z,19.92
2017-07-15T02:57:36.763Z,19.80
2017-07-15T03:00:03.378Z,17.70
2017-07-15T03:02:29.995Z,26.23
2017-07-15T03:04:56.678Z,18.80
2017-07-15T03:07:24.255Z,17.85
2017-07-15T03:09:50.975Z,21.67
2017-07-15T03:12:17.718Z,14.70
2017-07-15T03:14:44.355Z,13.57
2017-07-15T03:17:10.964Z,13.02
2017-07-15T03:19:37.590Z,19.20
2017-07-15T03:22:04.275Z,15.57
2017-07-15T03:24:30.915Z,15.07
2017-07-15T03:27:03.395Z,19.48
2017-07-15T03:29:30.006Z,16.95
2017-07-15T03:31:56.619Z,17.15
2017-07-15T03:34:23.271Z,18.92
2017-07-15T03:36:49.951Z,18.40
2017-07-15T03:39:16.596Z,14.60
2017-07-15T03:41:43.219Z,15.45
2017-07-15T03:44:09.864Z,15.07
2017-07-15T03:46:36.502Z,16.67
2017-07-15T03:49:03.161Z,15.90
2017-07-15T03:51:29.887Z,14.20
2017-07-15T03:53:56.494Z,12.80
2017-07-15T03:56:23.158Z,14.57
2017-07-15T03:58:49.804Z,11.80
2017-07-15T04:01:16.422Z,11.88
2017-07-15T04:03:43.050Z,13.93
2017-07-15T04:06:09.659Z,11.25
2017-07-15T04:08:36.359Z,13.20
2017-07-15T04:11:03.111Z,13.68
2017-07-15T04:13:30.094Z,17.17
2017-07-15T04:15:56.706Z,13.07
2017-07-15T04:18:23.439Z,12.25
2017-07-15T04:20:50.189Z,13.27
2017-07-15T04:23:16.802Z,10.77
2017-07-15T04:25:43.471Z,11.82
2017-07-15T04:28:10.433Z,11.07
2017-07-15T04:30:37.070Z,11.63
2017-07-15T04:33:03.814Z,12.45
2017-07-15T04:35:30.515Z,12.63
2017-07-15T04:37:57.132Z,9.98
2017-07-15T04:40:24.068Z,10.85
2017-07-15T04:42:52.160Z,10.95
2017-07-15T04:45:18.815Z,12.35
2017-07-15T04:47:46.021Z,10.32
2017-07-15T04:50:12.850Z,12.90
2017-07-15T04:52:39.598Z,11.68
2017-07-15T04:55:06.728Z,10.98
2017-07-15T04:57:33.686Z,11.02
2017-07-15T05:00:00.803Z,11.50
2017-07-15T05:02:27.427Z,10.68
2017-07-15T05:04:54.424Z,10.43
2017-07-15T05:07:21.094Z,11.63
2017-07-15T05:09:48.111Z,8.77
2017-07-15T05:12:14.809Z,11.10
2017-07-15T05:14:42.305Z,8.32
2017-07-15T05:17:09.011Z,7.90
2017-07-15T05:19:35.614Z,8.88
2017-07-15T05:22:02.288Z,10.57
2017-07-15T05:24:28.931Z,9.05
2017-07-15T05:26:55.545Z,9.15
2017-07-15T05:29:22.452Z,8.73
2017-07-15T05:31:49.146Z,8.80
2017-07-15T05:34:15.756Z,8.45
2017-07-15T05:36:42.371Z,10.45
2017-07-15T05:39:09.006Z,10.50
2017-07-15T05:41:35.614Z,9.55
2017-07-15T05:44:02.219Z,9.32
2017-07-15T05:46:28.864Z,9.38
2017-07-15T05:48:55.491Z,9.25
2017-07-15T05:51:22.110Z,10.05
2017-07-15T05:53:49.618Z,9.85
2017-07-15T05:56:16.259Z,9.55
2017-07-15T05:58:42.867Z,7.55
2017-07-15T06:01:09.493Z,9.80
2017-07-15T06:03:36.175Z,7.78
2017-07-15T06:06:02.814Z,8.25
2017-07-15T06:08:29.451Z,7.10
2017-07-15T06:10:56.070Z,7.72
2017-07-15T06:13:22.740Z,9.50
2017-07-15T06:15:49.363Z,7.05
2017-07-15T06:18:16.012Z,8.20
2017-07-15T06:20:42.643Z,8.00
2017-07-15T06:23:09.274Z,6.65
2017-07-15T06:25:35.926Z,6.70
2017-07-15T06:28:02.575Z,8.23
2017-07-15T06:30:29.307Z,5.85
2017-07-15T06:32:55.910Z,6.57
2017-07-15T06:35:22.514Z,6.75
2017-07-15T06:37:49.135Z,6.78
2017-07-15T06:40:15.743Z,6.95
2017-07-15T06:42:42.342Z,6.10
2017-07-15T06:45:09.034Z,6.12
2017-07-15T06:47:35.642Z,7.05
2017-07-15T06:50:02.255Z,5.28
2017-07-15T06:52:28.879Z,6.20
2017-07-15T06:54:55.483Z,4.30
2017-07-15T06:57:22.087Z,4.50
2017-07-15T06:59:48.771Z,4.50
2017-07-15T07:02:15.371Z,4.53
2017-07-15T07:04:41.970Z,4.60
2017-07-15T07:07:08.607Z,3.65
2017-07-15T07:09:35.284Z,4.20
2017-07-15T07:12:01.891Z,4.57
2017-07-15T07:14:28.604Z,3.37
2017-07-15T07:16:55.247Z,3.60
2017-07-15T07:19:21.883Z,3.95
2017-07-15T07:21:48.531Z,2.92
2017-07-15T07:24:15.155Z,2.67
2017-07-15T07:26:41.799Z,3.35
2017-07-15T07:29:08.422Z,3.70
2017-07-15T07:31:35.079Z,2.97
2017-07-15T07:34:01.719Z,3.42
2017-07-15T07:36:28.340Z,2.45
2017-07-15T07:38:54.947Z,3.10
2017-07-15T07:41:21.640Z,3.00
2017-07-15T07:43:48.273Z,3.17
2017-07-15T07:46:14.915Z,3.35
2017-07-15T07:48:41.523Z,3.20
2017-07-15T07:51:08.147Z,2.97
2017-07-15T07:53:34.831Z,3.22
2017-07-15T07:56:01.472Z,3.17
2017-07-15T07:58:28.212Z,2.87
2017-07-15T08:00:54.851Z,3.85
2017-07-15T08:03:21.451Z,3.47
2017-07-15T08:05:48.081Z,3.42
2017-07-15T08:08:14.683Z,3.80
2017-07-15T08:10:41.312Z,3.05
2017-07-15T08:13:08.048Z,3.28
2017-07-15T08:15:34.670Z,3.55
2017-07-15T08:18:01.307Z,3.30
2017-07-15T08:20:28.211Z,3.10
2017-07-15T08:22:54.819Z,2.60
2017-07-15T08:25:21.427Z,2.85
2017-07-15T08:27:48.061Z,2.67
2017-07-15T08:30:14.667Z,2.22
2017-07-15T08:32:41.271Z,2.50
2017-07-15T08:35:08.002Z,2.62
2017-07-15T08:37:34.638Z,2.53
2017-07-15T08:40:01.248Z,3.20
2017-07-15T08:42:27.875Z,3.80
2017-07-15T08:44:54.558Z,3.25
2017-07-15T08:47:21.163Z,3.00
2017-07-15T08:49:47.787Z,3.62
2017-07-15T08:52:14.467Z,3.60
2017-07-15T08:54:41.154Z,2.58
2017-07-15T08:57:07.861Z,3.22
2017-07-15T08:59:34.462Z,3.72
2017-07-15T09:02:01.139Z,3.40
2017-07-15T09:04:27.777Z,3.92
2017-07-15T09:06:54.391Z,7.25
2017-07-15T09:09:21.004Z,2.67
2017-07-15T09:11:47.627Z,2.40
2017-07-15T09:14:14.385Z,3.20
2017-07-15T09:16:40.951Z,3.22
2017-07-15T09:19:07.567Z,3.00
2017-07-15T09:21:34.247Z,2.35
2017-07-15T09:24:00.883Z,2.30
2017-07-15T09:26:27.523Z,2.83
2017-07-15T09:28:54.163Z,2.42
2017-07-15T09:31:20.775Z,4.05
2017-07-15T09:33:47.440Z,3.90
2017-07-15T09:36:14.078Z,6.68
2017-07-15T09:38:40.683Z,2.35
2017-07-15T09:41:07.307Z,4.87
2017-07-15T09:43:33.995Z,5.10
2017-07-15T09:46:00.606Z,4.75
2017-07-15T09:48:27.276Z,5.00
2017-07-15T09:50:53.923Z,4.68
2017-07-15T09:53:20.531Z,4.60
2017-07-15T09:55:47.191Z,5.60
2017-07-15T09:58:13.836Z,4.50
2017-07-15T10:00:40.470Z,4.60
2017-07-15T10:03:07.354Z,5.03
2017-07-15T10:05:34.087Z,4.75
2017-07-15T10:08:00.698Z,4.40
2017-07-15T10:10:27.435Z,5.28
2017-07-15T10:12:54.043Z,4.30
2017-07-15T10:15:20.857Z,4.90
2017-07-15T10:17:47.551Z,4.78
2017-07-15T10:20:14.152Z,3.95
2017-07-15T10:22:40.753Z,3.80
2017-07-15T10:25:07.382Z,3.37
2017-07-15T10:27:34.869Z,3.60
2017-07-15T10:30:01.575Z,3.22
2017-07-15T10:32:28.513Z,3.17
2017-07-15T10:34:55.260Z,4.05
2017-07-15T10:37:21.902Z,2.95
2017-07-15T10:39:49.090Z,3.50
2017-07-15T10:42:15.740Z,3.70
2017-07-15T10:44:42.674Z,3.17
2017-07-15T10:47:09.726Z,2.70
2017-07-15T10:49:36.820Z,3.20
2017-07-15T10:52:04.023Z,3.22
2017-07-15T10:54:31.278Z,4.05
2017-07-15T10:56:58.989Z,3.30
2017-07-15T10:59:25.627Z,3.15
2017-07-15T11:01:52.279Z,3.35
2017-07-15T11:04:18.879Z,3.55
2017-07-15T11:06:45.482Z,3.42
2017-07-15T11:09:12.114Z,3.20
2017-07-15T11:11:38.946Z,2.90
2017-07-15T11:14:05.654Z,2.67
2017-07-15T11:16:33.100Z,2.78
2017-07-15T11:19:01.354Z,2.58
2017-07-15T11:21:27.975Z,3.15
2017-07-15T11:23:54.599Z,2.58
2017-07-15T11:26:21.222Z,2.53
2017-07-15T11:28:48.343Z,2.78
2017-07-15T11:31:16.006Z,2.12
2017-07-15T11:33:42.652Z,2.95
2017-07-15T11:36:10.118Z,2.70
2017-07-15T11:38:36.903Z,2.60
2017-07-15T11:41:03.523Z,2.30
2017-07-15T11:43:30.158Z,2.20
2017-07-15T11:45:56.915Z,1.85
2017-07-15T11:48:23.520Z,2.40
2017-07-15T11:50:50.131Z,1.95
2017-07-15T11:53:16.763Z,1.83
2017-07-15T11:55:43.460Z,2.55
2017-07-15T11:58:10.100Z,1.90
2017-07-15T12:00:36.743Z,1.95
2017-07-15T12:03:03.374Z,1.95
2017-07-15T12:05:29.974Z,2.30
2017-07-15T12:07:56.604Z,2.15
2017-07-15T12:10:23.204Z,2.00
2017-07-15T12:12:49.826Z,2.00
2017-07-15T12:15:16.467Z,1.85
2017-07-15T12:17:43.108Z,2.22
2017-07-15T12:20:09.710Z,2.08
2017-07-15T12:22:36.426Z,1.65
2017-07-15T12:25:03.126Z,1.50
2017-07-15T12:27:29.735Z,2.17
2017-07-15T12:29:56.398Z,1.70
2017-07-15T12:32:23.010Z,2.28
2017-07-15T12:34:49.678Z,2.83
2017-07-15T12:37:16.319Z,2.30
2017-07-15T12:39:42.962Z,2.60
2017-07-15T12:42:09.602Z,2.10
2017-07-15T12:44:36.235Z,2.83
2017-07-15T12:47:02.840Z,2.62
2017-07-15T12:49:29.523Z,2.03
2017-07-15T12:51:56.243Z,3.42
2017-07-15T12:54:22.856Z,2.95
2017-07-15T12:56:49.460Z,2.10
2017-07-15T12:59:16.083Z,2.47
2017-07-15T13:01:42.691Z,2.45
2017-07-15T13:04:09.295Z,2.83
2017-07-15T13:06:35.997Z,2.00
2017-07-15T13:09:02.603Z,2.00
2017-07-15T13:11:29.208Z,2.30
2017-07-15T13:13:55.828Z,1.60
2017-07-15T13:16:22.550Z,1.75
2017-07-15T13:18:49.191Z,1.05
2017-07-15T13:21:15.931Z,1.47
2017-07-15T13:23:42.566Z,1.20
2017-07-15T13:26:09.211Z,0.70
2017-07-15T13:28:35.951Z,0.63
2017-07-15T13:31:02.595Z,0.97
2017-07-15T13:33:29.199Z,1.40
2017-07-15T13:35:55.828Z,0.93
2017-07-15T13:38:22.439Z,1.70
2017-07-15T13:40:49.055Z,1.33
2017-07-15T13:43:15.700Z,1.77
2017-07-15T13:45:42.303Z,1.58
2017-07-15T13:48:08.968Z,1.40
2017-07-15T13:50:35.742Z,1.40
2017-07-15T13:53:02.450Z,1.52
2017-07-15T13:55:29.063Z,1.90
2017-07-15T13:57:55.687Z,1.80
2017-07-15T14:00:22.356Z,2.10
2017-07-15T14:02:49.416Z,1.60
2017-07-15T14:05:16.155Z,1.50
2017-07-15T14:07:44.658Z,1.60
2017-07-15T14:10:11.274Z,1.60
2017-07-15T14:12:37.894Z,1.90
2017-07-15T14:15:04.508Z,1.75
2017-07-15T14:17:31.111Z,2.20
2017-07-15T14:19:57.740Z,1.70
2017-07-15T14:22:24.345Z,2.10
2017-07-15T14:24:50.998Z,1.83
2017-07-15T14:27:17.634Z,1.90
2017-07-15T14:29:44.238Z,1.95
2017-07-15T14:32:10.850Z,2.10
2017-07-15T14:34:37.556Z,1.90
2017-07-15T14:37:04.201Z,2.40
2017-07-15T14:39:30.835Z,2.47
2017-07-15T14:41:57.463Z,2.15
2017-07-15T14:44:24.077Z,2.90
2017-07-15T14:46:50.682Z,2.50
2017-07-15T14:49:17.311Z,2.95
2017-07-15T14:51:43.918Z,3.03
2017-07-15T14:54:10.568Z,2.85
2017-07-15T14:56:37.211Z,2.60
2017-07-15T14:59:03.820Z,2.62
2017-07-15T15:01:30.427Z,2.80
2017-07-15T15:03:57.043Z,2.50
2017-07-15T15:06:23.763Z,2.30
2017-07-15T15:08:50.374Z,2.50
2017-07-15T15:11:16.999Z,2.70
2017-07-15T15:13:43.679Z,2.35
2017-07-15T15:16:10.324Z,1.80
2017-07-15T15:18:36.955Z,2.42
2017-07-15T15:21:03.564Z,1.83
2017-07-15T15:23:30.235Z,2.00
2017-07-15T15:25:56.882Z,1.67
2017-07-15T15:28:23.487Z,1.98
2017-07-15T15:30:50.097Z,1.62
2017-07-15T15:33:16.794Z,1.90
2017-07-15T15:35:43.411Z,1.65
2017-07-15T15:38:10.020Z,1.58
2017-07-15T15:40:36.646Z,1.90
2017-07-15T15:43:03.246Z,1.62
2017-07-15T15:45:30.088Z,1.75
2017-07-15T15:47:56.711Z,1.27
2017-07-15T15:50:23.322Z,1.55
2017-07-15T15:52:49.932Z,1.65
2017-07-15T15:55:16.563Z,2.08
2017-07-15T15:57:43.168Z,1.52
2017-07-15T16:00:09.780Z,1.60
2017-07-15T16:02:36.467Z,1.60
2017-07-15T16:05:03.099Z,2.00
2017-07-15T16:07:29.708Z,1.80
2017-07-15T16:09:56.375Z,1.85
2017-07-15T16:12:22.978Z,1.95
2017-07-15T16:14:49.580Z,2.12
2017-07-15T16:17:16.206Z,1.73
2017-07-15T16:19:42.812Z,2.10
2017-07-15T16:22:09.470Z,2.05
2017-07-15T16:24:36.094Z,1.90
2017-07-15T16:27:02.704Z,2.85
2017-07-15T16:29:29.389Z,2.33
2017-07-15T16:31:56.127Z,2.62
2017-07-15T16:34:22.738Z,2.00
2017-07-15T16:36:49.410Z,1.65
2017-07-15T16:39:16.087Z,2.00
2017-07-15T16:41:42.787Z,1.80
2017-07-15T16:44:09.391Z,2.10
2017-07-15T16:46:36.027Z,2.80
2017-07-15T16:49:02.642Z,2.53
2017-07-15T16:51:29.348Z,2.40
2017-07-15T16:53:56.087Z,2.50
2017-07-15T16:56:22.727Z,2.15
2017-07-15T16:58:49.508Z,2.53
2017-07-15T17:01:16.133Z,2.83
2017-07-15T17:03:42.744Z,3.00
2017-07-15T17:06:09.355Z,2.50
2017-07-15T17:08:36.019Z,2.65
2017-07-15T17:11:02.632Z,2.78
2017-07-15T17:13:29.304Z,2.75
2017-07-15T17:15:55.947Z,3.10
2017-07-15T17:18:22.560Z,2.92
2017-07-15T17:20:49.173Z,3.35
2017-07-15T17:23:15.798Z,3.05
2017-07-15T17:25:42.411Z,2.33
2017-07-15T17:28:09.028Z,2.97
2017-07-15T17:30:35.671Z,3.30
2017-07-15T17:33:02.286Z,2.90
2017-07-15T17:35:28.890Z,3.72
2017-07-15T17:37:55.511Z,2.87
2017-07-15T17:40:22.124Z,2.95
2017-07-15T17:42:48.735Z,3.00
2017-07-15T17:45:15.401Z,3.20
2017-07-15T17:47:42.080Z,2.47
2017-07-15T17:50:08.683Z,2.87
2017-07-15T17:52:35.419Z,3.35
2017-07-15T17:55:02.022Z,3.20
2017-07-15T17:57:28.701Z,2.92
2017-07-15T17:59:55.330Z,3.03
2017-07-15T18:02:21.941Z,2.90
2017-07-15T18:04:48.553Z,3.60
2017-07-15T18:07:15.251Z,3.42
2017-07-15T18:09:41.898Z,2.58
2017-07-15T18:12:08.539Z,3.20
2017-07-15T18:14:35.162Z,3.55
2017-07-15T18:17:01.806Z,3.03
2017-07-15T18:19:28.446Z,3.28
2017-07-15T18:21:55.071Z,3.03
2017-07-15T18:24:21.722Z,3.87
2017-07-15T18:26:48.332Z,3.90
2017-07-15T18:29:14.955Z,3.67
2017-07-15T18:31:41.560Z,3.70
2017-07-15T18:34:08.193Z,3.95
2017-07-15T18:36:34.815Z,3.72
2017-07-15T18:39:01.423Z,3.80
2017-07-15T18:41:28.098Z,3.85
2017-07-15T18:43:54.718Z,3.30
2017-07-15T18:46:21.320Z,3.85
2017-07-15T18:48:47.929Z,3.83
2017-07-15T18:51:14.555Z,3.80
2017-07-15T18:53:41.163Z,3.90
2017-07-15T18:56:07.763Z,4.18
2017-07-15T18:58:34.470Z,4.37
2017-07-15T19:01:01.076Z,4.05
2017-07-15T19:03:27.685Z,4.72
2017-07-15T19:05:54.303Z,4.60
2017-07-15T19:08:20.915Z,4.35
2017-07-15T19:10:47.523Z,4.30
2017-07-15T19:13:14.198Z,4.57
2017-07-15T19:15:40.834Z,4.60
2017-07-15T19:18:07.483Z,5.50
2017-07-15T19:20:34.102Z,4.70
2017-07-15T19:23:00.800Z,4.07
2017-07-15T19:25:27.502Z,3.80
2017-07-15T19:27:54.124Z,4.53
2017-07-15T19:30:20.730Z,4.12
2017-07-15T19:32:47.419Z,4.62
2017-07-15T19:35:14.039Z,4.55
2017-07-15T19:37:40.701Z,4.07
2017-07-15T19:40:07.341Z,3.72
2017-07-15T19:42:33.967Z,4.80
2017-07-15T19:45:00.663Z,4.32
2017-07-15T19:47:27.356Z,4.20
2017-07-15T19:49:54.015Z,4.40
2017-07-15T19:52:20.700Z,4.78
2017-07-15T19:54:47.388Z,4.28
2017-07-15T19:57:14.084Z,4.05
2017-07-15T19:59:40.865Z,4.22
2017-07-15T20:02:07.620Z,4.57
2017-07-15T20:04:34.482Z,4.18
2017-07-15T20:07:01.247Z,5.72
2017-07-15T20:09:27.995Z,4.22
2017-07-15T20:11:54.846Z,7.12
2017-07-15T20:14:21.646Z,6.65
2017-07-15T20:16:48.336Z,5.03
2017-07-15T20:19:15.144Z,5.12
2017-07-15T20:21:41.900Z,6.68
2017-07-15T20:24:08.627Z,7.05
2017-07-15T20:26:35.312Z,4.90
2017-07-15T20:29:01.998Z,5.20
2017-07-15T20:31:28.614Z,4.30
2017-07-15T20:33:55.335Z,4.93
2017-07-15T20:36:27.767Z,5.53
2017-07-15T20:38:54.449Z,6.75
2017-07-15T20:41:21.075Z,6.07
2017-07-15T20:43:47.731Z,5.82
2017-07-15T20:46:14.367Z,5.95
2017-07-15T20:48:40.975Z,5.95
2017-07-15T20:51:07.579Z,7.10
2017-07-15T20:53:39.924Z,8.90
2017-07-15T20:56:06.551Z,6.65
2017-07-15T20:58:33.175Z,11.80
2017-07-15T21:00:59.830Z,7.35
2017-07-15T21:03:26.471Z,8.55
2017-07-15T21:05:53.116Z,7.25
2017-07-15T21:08:19.855Z,7.28
2017-07-15T21:10:46.459Z,7.37
2017-07-15T21:13:13.072Z,8.13
2017-07-15T21:15:39.695Z,6.60
2017-07-15T21:18:06.407Z,7.95
2017-07-15T21:20:33.052Z,8.07
2017-07-15T21:22:59.682Z,8.80
2017-07-15T21:25:26.291Z,8.27
2017-07-15T21:27:52.903Z,16.02
2017-07-15T21:30:19.538Z,22.42
2017-07-15T21:32:46.239Z,9.48
2017-07-15T21:35:12.883Z,7.05
2017-07-15T21:37:39.503Z,6.97
2017-07-15T21:40:06.119Z,7.55
2017-07-15T21:42:32.805Z,8.45
2017-07-15T21:44:59.423Z,7.95
2017-07-15T21:47:26.085Z,8.88
2017-07-15T21:49:52.723Z,9.27
2017-07-15T21:52:19.459Z,9.05
2017-07-15T21:54:46.060Z,8.98
2017-07-15T21:57:12.671Z,9.68
2017-07-15T21:59:39.299Z,8.70
2017-07-15T22:02:06.013Z,8.50
2017-07-15T22:04:32.619Z,8.13
2017-07-15T22:06:59.239Z,7.90
2017-07-15T22:09:25.845Z,9.90
2017-07-15T22:11:52.455Z,7.78
2017-07-15T22:14:19.115Z,8.23
2017-07-15T22:16:45.752Z,8.18
2017-07-15T22:19:12.358Z,6.75
2017-07-15T22:21:39.031Z,7.20
2017-07-15T22:24:05.635Z,6.85
2017-07-15T22:26:32.243Z,7.40
2017-07-15T22:28:58.859Z,7.47
2017-07-15T22:31:25.483Z,7.62
2017-07-15T22:33:52.083Z,7.00
2017-07-15T22:36:18.718Z,7.43
2017-07-15T22:38:45.327Z,6.90
2017-07-15T22:41:11.935Z,6.60
2017-07-15T22:43:38.559Z,6.70
2017-07-15T22:46:05.166Z,7.25
2017-07-15T22:48:31.852Z,6.85
2017-07-15T22:50:58.591Z,7.15
2017-07-15T22:53:25.204Z,7.55
2017-07-15T22:55:51.816Z,7.93
2017-07-15T22:58:18.440Z,7.37
2017-07-15T23:00:45.047Z,7.05
2017-07-15T23:03:11.655Z,6.62
2017-07-15T23:05:38.328Z,7.70
2017-07-15T23:08:04.936Z,6.57
2017-07-15T23:10:31.606Z,6.65
2017-07-15T23:12:58.338Z,7.18
2017-07-15T23:15:24.947Z,6.90
2017-07-15T23:17:51.619Z,7.45
2017-07-15T23:20:18.367Z,53.63
2017-07-15T23:22:44.998Z,7.93
2017-07-15T23:25:11.643Z,6.95
2017-07-15T23:27:38.264Z,5.97
2017-07-15T23:30:04.863Z,7.43
2017-07-15T23:32:31.472Z,6.97
2017-07-15T23:34:58.194Z,7.20
2017-07-15T23:37:24.803Z,6.93
2017-07-15T23:39:51.412Z,7.00
2017-07-15T23:42:18.035Z,7.30
2017-07-15T23:44:44.755Z,7.72
2017-07-15T23:47:11.395Z,8.10
2017-07-15T23:49:38.015Z,8.95
2017-07-15T23:52:04.627Z,8.30
2017-07-15T23:54:31.311Z,8.07
2017-07-15T23:56:57.930Z,7.90
2017-07-15T23:59:24.531Z,7.90
